sensor_id;sensor_type;location;lat;lon;timestamp;pressure;altitude;pressure_sealevel;temperature;humidity
75701;BME280;64321;48.796;44.740;2024-02-15T00:01:38;102746.72;;;-3.86;88.56
75701;BME280;64321;48.796;44.740;2024-02-15T00:06:40;102740.00;;;-3.70;86.01
75701;BME280;64321;48.796;44.740;2024-02-15T00:11:44;102734.44;;;-4.04;90.51
75701;BME280;64321;48.796;44.740;2024-02-15T00:16:46;102728.31;;;-4.13;86.64
75701;BME280;64321;48.796;44.740;2024-02-15T00:21:49;102748.81;;;-4.24;88.58
75701;BME280;64321;48.796;44.740;2024-02-15T00:26:51;102740.09;;;-4.34;86.28
75701;BME280;64321;48.796;44.740;2024-02-15T00:31:56;102756.28;;;-4.42;84.57
75701;BME280;64321;48.796;44.740;2024-02-15T00:36:59;102742.31;;;-4.57;82.75
75701;BME280;64321;48.796;44.740;2024-02-15T00:42:02;102743.19;;;-4.56;84.09
75701;BME280;64321;48.796;44.740;2024-02-15T00:47:04;102753.19;;;-4.77;84.04
75701;BME280;64321;48.796;44.740;2024-02-15T00:52:07;102749.66;;;-4.82;82.92
75701;BME280;64321;48.796;44.740;2024-02-15T00:57:09;102758.00;;;-4.97;83.16
75701;BME280;64321;48.796;44.740;2024-02-15T01:02:12;102759.66;;;-5.01;84.29
75701;BME280;64321;48.796;44.740;2024-02-15T01:07:15;102768.72;;;-5.24;90.53
75701;BME280;64321;48.796;44.740;2024-02-15T01:12:17;102769.16;;;-4.98;88.90
75701;BME280;64321;48.796;44.740;2024-02-15T01:17:19;102786.91;;;-5.15;83.94
75701;BME280;64321;48.796;44.740;2024-02-15T01:22:22;102778.06;;;-5.29;78.88
75701;BME280;64321;48.796;44.740;2024-02-15T01:27:29;102781.59;;;-5.24;76.31
75701;BME280;64321;48.796;44.740;2024-02-15T01:32:32;102793.22;;;-5.44;79.28
75701;BME280;64321;48.796;44.740;2024-02-15T01:37:35;102803.09;;;-5.66;78.36
75701;BME280;64321;48.796;44.740;2024-02-15T01:42:37;102814.09;;;-5.73;80.48
75701;BME280;64321;48.796;44.740;2024-02-15T01:47:40;102823.16;;;-5.49;80.15
75701;BME280;64321;48.796;44.740;2024-02-15T01:52:43;102819.91;;;-5.83;82.02
75701;BME280;64321;48.796;44.740;2024-02-15T01:57:49;102826.00;;;-5.78;79.75
75701;BME280;64321;48.796;44.740;2024-02-15T02:02:52;102837.53;;;-5.61;78.97
75701;BME280;64321;48.796;44.740;2024-02-15T02:07:55;102842.13;;;-5.44;78.89
75701;BME280;64321;48.796;44.740;2024-02-15T02:13:01;102832.72;;;-5.44;76.05
75701;BME280;64321;48.796;44.740;2024-02-15T02:18:06;102830.94;;;-5.46;77.37
75701;BME280;64321;48.796;44.740;2024-02-15T02:23:16;102841.31;;;-5.43;76.35
75701;BME280;64321;48.796;44.740;2024-02-15T02:28:22;102850.00;;;-5.38;76.20
75701;BME280;64321;48.796;44.740;2024-02-15T02:33:25;102847.91;;;-5.54;77.53
75701;BME280;64321;48.796;44.740;2024-02-15T02:38:31;102864.59;;;-5.78;76.20
75701;BME280;64321;48.796;44.740;2024-02-15T02:43:33;102867.97;;;-5.80;76.04
75701;BME280;64321;48.796;44.740;2024-02-15T02:48:39;102865.25;;;-6.25;75.65
75701;BME280;64321;48.796;44.740;2024-02-15T02:53:43;102868.66;;;-6.26;77.27
75701;BME280;64321;48.796;44.740;2024-02-15T02:58:46;102885.22;;;-6.15;75.73
75701;BME280;64321;48.796;44.740;2024-02-15T03:03:48;102883.44;;;-6.18;75.86
75701;BME280;64321;48.796;44.740;2024-02-15T03:08:51;102885.53;;;-6.38;77.53
75701;BME280;64321;48.796;44.740;2024-02-15T03:13:57;102888.34;;;-6.63;76.41
75701;BME280;64321;48.796;44.740;2024-02-15T03:19:02;102896.81;;;-6.67;76.71
75701;BME280;64321;48.796;44.740;2024-02-15T03:24:07;102886.63;;;-6.62;76.99
75701;BME280;64321;48.796;44.740;2024-02-15T03:29:10;102885.63;;;-6.69;77.81
75701;BME280;64321;48.796;44.740;2024-02-15T03:34:13;102894.97;;;-6.71;75.31
75701;BME280;64321;48.796;44.740;2024-02-15T03:39:18;102896.06;;;-6.94;77.53
75701;BME280;64321;48.796;44.740;2024-02-15T03:44:20;102910.00;;;-6.86;76.89
75701;BME280;64321;48.796;44.740;2024-02-15T03:49:23;102906.84;;;-7.08;74.68
75701;BME280;64321;48.796;44.740;2024-02-15T03:54:25;102915.78;;;-7.25;77.21
75701;BME280;64321;48.796;44.740;2024-02-15T03:59:28;102915.97;;;-7.19;77.05
75701;BME280;64321;48.796;44.740;2024-02-15T04:04:30;102922.31;;;-7.36;79.66
75701;BME280;64321;48.796;44.740;2024-02-15T04:09:33;102928.75;;;-7.49;77.35
75701;BME280;64321;48.796;44.740;2024-02-15T04:14:38;102939.47;;;-7.33;78.03
75701;BME280;64321;48.796;44.740;2024-02-15T04:19:40;102946.59;;;-7.53;79.10
75701;BME280;64321;48.796;44.740;2024-02-15T04:24:43;102955.53;;;-7.41;77.22
75701;BME280;64321;48.796;44.740;2024-02-15T04:29:47;102980.50;;;-7.35;74.97
75701;BME280;64321;48.796;44.740;2024-02-15T04:34:50;103002.22;;;-7.24;74.60
75701;BME280;64321;48.796;44.740;2024-02-15T04:39:53;103017.59;;;-7.52;73.12
75701;BME280;64321;48.796;44.740;2024-02-15T04:44:56;103043.06;;;-7.58;74.15
75701;BME280;64321;48.796;44.740;2024-02-15T04:49:58;103034.25;;;-7.40;72.83
75701;BME280;64321;48.796;44.740;2024-02-15T04:55:02;103049.66;;;-7.40;74.02
75701;BME280;64321;48.796;44.740;2024-02-15T05:00:07;103066.50;;;-7.48;74.04
75701;BME280;64321;48.796;44.740;2024-02-15T05:05:15;103074.53;;;-7.37;71.85
75701;BME280;64321;48.796;44.740;2024-02-15T05:10:18;103080.13;;;-7.22;69.74
75701;BME280;64321;48.796;44.740;2024-02-15T05:15:20;103078.84;;;-7.08;70.02
75701;BME280;64321;48.796;44.740;2024-02-15T05:20:27;103094.91;;;-6.86;71.07
75701;BME280;64321;48.796;44.740;2024-02-15T05:25:29;103113.25;;;-7.03;69.59
75701;BME280;64321;48.796;44.740;2024-02-15T05:30:35;103109.09;;;-6.99;69.43
75701;BME280;64321;48.796;44.740;2024-02-15T05:35:39;103110.22;;;-6.89;67.82
75701;BME280;64321;48.796;44.740;2024-02-15T05:40:44;103115.53;;;-7.12;67.37
75701;BME280;64321;48.796;44.740;2024-02-15T05:45:46;103109.31;;;-6.91;67.75
75701;BME280;64321;48.796;44.740;2024-02-15T05:50:51;103107.38;;;-6.70;67.76
75701;BME280;64321;48.796;44.740;2024-02-15T05:55:54;103108.78;;;-6.81;67.07
75701;BME280;64321;48.796;44.740;2024-02-15T06:00:58;103121.84;;;-7.29;67.70
75701;BME280;64321;48.796;44.740;2024-02-15T06:06:04;103108.53;;;-7.17;68.67
75701;BME280;64321;48.796;44.740;2024-02-15T06:11:10;103127.78;;;-7.03;68.45
75701;BME280;64321;48.796;44.740;2024-02-15T06:16:14;103128.59;;;-6.76;69.02
75701;BME280;64321;48.796;44.740;2024-02-15T06:21:17;103119.88;;;-6.52;68.04
75701;BME280;64321;48.796;44.740;2024-02-15T06:26:20;103113.38;;;-6.70;68.51
75701;BME280;64321;48.796;44.740;2024-02-15T06:31:23;103124.38;;;-6.45;69.05
75701;BME280;64321;48.796;44.740;2024-02-15T06:36:48;103128.13;;;-6.34;70.26
75701;BME280;64321;48.796;44.740;2024-02-15T06:42:11;103119.03;;;-6.21;70.81
75701;BME280;64321;48.796;44.740;2024-02-15T06:47:17;103141.78;;;-6.35;71.21
75701;BME280;64321;48.796;44.740;2024-02-15T06:52:21;103120.88;;;-6.17;72.39
75701;BME280;64321;48.796;44.740;2024-02-15T06:57:24;103127.94;;;-6.10;71.67
75701;BME280;64321;48.796;44.740;2024-02-15T07:02:27;103121.38;;;-5.99;72.53
75701;BME280;64321;48.796;44.740;2024-02-15T07:07:31;103121.84;;;-5.79;73.43
75701;BME280;64321;48.796;44.740;2024-02-15T07:12:34;103116.56;;;-5.84;75.21
75701;BME280;64321;48.796;44.740;2024-02-15T07:17:36;103116.56;;;-5.84;75.31
75701;BME280;64321;48.796;44.740;2024-02-15T07:22:39;103123.16;;;-5.97;75.63
75701;BME280;64321;48.796;44.740;2024-02-15T07:27:41;103118.03;;;-5.95;80.05
75701;BME280;64321;48.796;44.740;2024-02-15T07:32:44;103130.44;;;-5.79;80.45
75701;BME280;64321;48.796;44.740;2024-02-15T07:37:54;103131.91;;;-5.55;79.32
75701;BME280;64321;48.796;44.740;2024-02-15T07:42:57;103134.97;;;-5.34;81.50
75701;BME280;64321;48.796;44.740;2024-02-15T07:48:00;103122.06;;;-5.36;80.84
75701;BME280;64321;48.796;44.740;2024-02-15T07:53:03;103138.53;;;-5.29;79.15
75701;BME280;64321;48.796;44.740;2024-02-15T07:58:09;103131.66;;;-4.93;78.34
75701;BME280;64321;48.796;44.740;2024-02-15T08:03:11;103148.88;;;-4.92;77.59
75701;BME280;64321;48.796;44.740;2024-02-15T08:08:14;103141.69;;;-4.67;78.26
75701;BME280;64321;48.796;44.740;2024-02-15T08:13:16;103136.44;;;-4.72;78.23
75701;BME280;64321;48.796;44.740;2024-02-15T08:18:20;103143.63;;;-4.57;75.51
75701;BME280;64321;48.796;44.740;2024-02-15T08:23:22;103144.78;;;-4.43;76.07
75701;BME280;64321;48.796;44.740;2024-02-15T08:28:25;103159.38;;;-4.43;78.22
75701;BME280;64321;48.796;44.740;2024-02-15T08:33:27;103160.78;;;-4.58;76.27
75701;BME280;64321;48.796;44.740;2024-02-15T08:38:31;103169.63;;;-4.46;78.15
75701;BME280;64321;48.796;44.740;2024-02-15T08:43:33;103155.34;;;-4.31;77.06
75701;BME280;64321;48.796;44.740;2024-02-15T08:48:36;103155.97;;;-3.99;72.98
75701;BME280;64321;48.796;44.740;2024-02-15T08:53:39;103165.44;;;-3.99;73.88
75701;BME280;64321;48.796;44.740;2024-02-15T08:58:41;103169.25;;;-3.79;72.99
75701;BME280;64321;48.796;44.740;2024-02-15T09:03:44;103162.25;;;-3.86;71.15
75701;BME280;64321;48.796;44.740;2024-02-15T09:08:47;103166.13;;;-3.63;71.69
75701;BME280;64321;48.796;44.740;2024-02-15T09:13:50;103152.75;;;-3.40;69.36
75701;BME280;64321;48.796;44.740;2024-02-15T09:18:53;103157.78;;;-3.46;69.21
75701;BME280;64321;48.796;44.740;2024-02-15T09:23:56;103146.66;;;-3.44;68.03
75701;BME280;64321;48.796;44.740;2024-02-15T09:28:58;103149.59;;;-3.20;68.39
75701;BME280;64321;48.796;44.740;2024-02-15T09:34:01;103141.81;;;-3.21;67.49
75701;BME280;64321;48.796;44.740;2024-02-15T09:39:04;103151.69;;;-2.96;66.45
75701;BME280;64321;48.796;44.740;2024-02-15T09:44:06;103131.19;;;-2.87;65.77
75701;BME280;64321;48.796;44.740;2024-02-15T09:49:09;103143.69;;;-3.12;66.99
75701;BME280;64321;48.796;44.740;2024-02-15T09:54:12;103131.25;;;-2.79;66.58
75701;BME280;64321;48.796;44.740;2024-02-15T09:59:21;103130.44;;;-2.76;65.37
75701;BME280;64321;48.796;44.740;2024-02-15T10:04:24;103135.81;;;-2.61;63.45
75701;BME280;64321;48.796;44.740;2024-02-15T10:09:28;103130.47;;;-2.75;63.64
75701;BME280;64321;48.796;44.740;2024-02-15T10:14:32;103140.25;;;-2.50;62.47
75701;BME280;64321;48.796;44.740;2024-02-15T10:19:35;103140.34;;;-2.45;62.82
75701;BME280;64321;48.796;44.740;2024-02-15T10:24:38;103135.25;;;-2.39;61.86
75701;BME280;64321;48.796;44.740;2024-02-15T10:29:42;103119.53;;;-2.54;62.65
75701;BME280;64321;48.796;44.740;2024-02-15T10:34:45;103119.72;;;-2.39;61.27
75701;BME280;64321;48.796;44.740;2024-02-15T10:40:04;103112.66;;;-2.52;59.66
75701;BME280;64321;48.796;44.740;2024-02-15T10:45:10;103122.38;;;-2.31;60.81
75701;BME280;64321;48.796;44.740;2024-02-15T10:50:14;103118.22;;;-2.19;59.09
75701;BME280;64321;48.796;44.740;2024-02-15T10:55:26;103108.66;;;-2.26;59.45
75701;BME280;64321;48.796;44.740;2024-02-15T11:00:35;103113.06;;;-2.19;60.10
75701;BME280;64321;48.796;44.740;2024-02-15T11:05:42;103125.38;;;-1.98;59.45
75701;BME280;64321;48.796;44.740;2024-02-15T11:10:46;103111.69;;;-2.60;58.88
75701;BME280;64321;48.796;44.740;2024-02-15T11:15:49;103118.22;;;-2.19;58.99
75701;BME280;64321;48.796;44.740;2024-02-15T11:20:53;103130.13;;;-2.33;58.63
75701;BME280;64321;48.796;44.740;2024-02-15T11:25:58;103131.47;;;-2.62;59.24
75701;BME280;64321;48.796;44.740;2024-02-15T11:31:03;103129.75;;;-2.63;58.57
75701;BME280;64321;48.796;44.740;2024-02-15T11:41:18;103151.03;;;-2.18;59.15
75701;BME280;64321;48.796;44.740;2024-02-15T11:46:21;103141.19;;;-2.45;59.53
75701;BME280;64321;48.796;44.740;2024-02-15T11:51:28;103137.19;;;-2.21;58.47
75701;BME280;64321;48.796;44.740;2024-02-15T12:01:51;103151.16;;;-2.05;59.06
75701;BME280;64321;48.796;44.740;2024-02-15T12:07:14;103142.44;;;-2.14;59.42
75701;BME280;64321;48.796;44.740;2024-02-15T12:12:35;103151.75;;;-2.28;58.83
75701;BME280;64321;48.796;44.740;2024-02-15T12:18:13;103150.19;;;-2.14;59.11
75701;BME280;64321;48.796;44.740;2024-02-15T12:23:34;103122.25;;;-2.42;59.68
75701;BME280;64321;48.796;44.740;2024-02-15T12:28:38;103140.47;;;-2.36;61.18
75701;BME280;64321;48.796;44.740;2024-02-15T12:33:46;103140.84;;;-2.02;61.45
75701;BME280;64321;48.796;44.740;2024-02-15T12:38:59;103140.34;;;-2.45;60.76
75701;BME280;64321;48.796;44.740;2024-02-15T12:44:02;103157.56;;;-2.46;61.50
75701;BME280;64321;48.796;44.740;2024-02-15T12:49:09;103150.63;;;-2.51;62.26
75701;BME280;64321;48.796;44.740;2024-02-15T12:54:19;103160.06;;;-2.53;61.84
75701;BME280;64321;48.796;44.740;2024-02-15T12:59:23;103174.50;;;-2.67;61.43
75701;BME280;64321;48.796;44.740;2024-02-15T13:04:26;103165.84;;;-2.72;62.31
75701;BME280;64321;48.796;44.740;2024-02-15T13:09:28;103180.78;;;-2.53;62.64
75701;BME280;64321;48.796;44.740;2024-02-15T13:14:31;103186.19;;;-2.94;63.12
75701;BME280;64321;48.796;44.740;2024-02-15T13:19:33;103189.69;;;-2.92;63.45
75701;BME280;64321;48.796;44.740;2024-02-15T13:24:38;103189.41;;;-3.10;63.85
75701;BME280;64321;48.796;44.740;2024-02-15T13:29:41;103208.63;;;-3.44;67.07
75701;BME280;64321;48.796;44.740;2024-02-15T13:34:43;103213.72;;;-3.48;66.84
75701;BME280;64321;48.796;44.740;2024-02-15T13:39:47;103217.91;;;-3.54;67.21
75701;BME280;64321;48.796;44.740;2024-02-15T13:44:50;103224.94;;;-3.46;68.58
75701;BME280;64321;48.796;44.740;2024-02-15T13:49:52;103220.47;;;-4.00;71.14
75701;BME280;64321;48.796;44.740;2024-02-15T13:54:55;103223.31;;;-4.27;73.88
75701;BME280;64321;48.796;44.740;2024-02-15T13:59:57;103232.66;;;-4.34;76.37
75701;BME280;64321;48.796;44.740;2024-02-15T14:05:00;103241.81;;;-4.46;78.20
75701;BME280;64321;48.796;44.740;2024-02-15T14:10:05;103250.38;;;-4.49;82.41
75701;BME280;64321;48.796;44.740;2024-02-15T14:15:08;103256.47;;;-4.81;84.03
75701;BME280;64321;48.796;44.740;2024-02-15T14:20:11;103250.31;;;-4.88;87.15
75701;BME280;64321;48.796;44.740;2024-02-15T14:25:18;103254.44;;;-4.95;88.42
75701;BME280;64321;48.796;44.740;2024-02-15T14:30:21;103276.59;;;-5.01;90.08
75701;BME280;64321;48.796;44.740;2024-02-15T14:35:42;103271.00;;;-5.19;93.72
75701;BME280;64321;48.796;44.740;2024-02-15T14:40:45;103272.13;;;-5.08;94.94
75701;BME280;64321;48.796;44.740;2024-02-15T14:45:53;103289.00;;;-5.21;95.50
75701;BME280;64321;48.796;44.740;2024-02-15T14:50:56;103289.81;;;-5.22;96.56
75701;BME280;64321;48.796;44.740;2024-02-15T14:55:59;103310.16;;;-5.31;97.43
75701;BME280;64321;48.796;44.740;2024-02-15T15:01:01;103306.56;;;-5.36;100.00
75701;BME280;64321;48.796;44.740;2024-02-15T15:06:11;103317.94;;;-5.30;100.00
75701;BME280;64321;48.796;44.740;2024-02-15T15:11:33;103332.00;;;-5.48;100.00
75701;BME280;64321;48.796;44.740;2024-02-15T15:16:53;103331.25;;;-5.44;100.00
75701;BME280;64321;48.796;44.740;2024-02-15T15:21:57;103332.97;;;-5.45;100.00
75701;BME280;64321;48.796;44.740;2024-02-15T15:27:00;103344.03;;;-5.47;100.00
75701;BME280;64321;48.796;44.740;2024-02-15T15:32:03;103352.03;;;-5.38;100.00
75701;BME280;64321;48.796;44.740;2024-02-15T15:37:07;103372.22;;;-5.52;100.00
75701;BME280;64321;48.796;44.740;2024-02-15T15:42:10;103362.78;;;-5.51;100.00
75701;BME280;64321;48.796;44.740;2024-02-15T15:47:12;103379.84;;;-5.56;100.00
75701;BME280;64321;48.796;44.740;2024-02-15T15:52:15;103386.44;;;-5.65;100.00
75701;BME280;64321;48.796;44.740;2024-02-15T15:57:17;103392.97;;;-5.76;100.00
75701;BME280;64321;48.796;44.740;2024-02-15T16:02:21;103415.56;;;-5.66;100.00
75701;BME280;64321;48.796;44.740;2024-02-15T16:07:24;103411.22;;;-5.68;99.12
75701;BME280;64321;48.796;44.740;2024-02-15T16:12:26;103411.97;;;-5.71;100.00
75701;BME280;64321;48.796;44.740;2024-02-15T16:17:29;103426.50;;;-5.74;98.31
75701;BME280;64321;48.796;44.740;2024-02-15T16:22:33;103428.53;;;-5.91;97.01
75701;BME280;64321;48.796;44.740;2024-02-15T16:27:36;103444.97;;;-6.14;96.28
75701;BME280;64321;48.796;44.740;2024-02-15T16:32:40;103448.34;;;-6.15;96.63
75701;BME280;64321;48.796;44.740;2024-02-15T16:37:43;103464.00;;;-6.09;96.51
75701;BME280;64321;48.796;44.740;2024-02-15T16:42:47;103469.13;;;-6.35;94.34
75701;BME280;64321;48.796;44.740;2024-02-15T16:47:54;103472.75;;;-6.29;93.73
75701;BME280;64321;48.796;44.740;2024-02-15T16:53:04;103476.25;;;-6.27;95.63
75701;BME280;64321;48.796;44.740;2024-02-15T16:58:12;103478.38;;;-6.40;92.73
75701;BME280;64321;48.796;44.740;2024-02-15T17:03:15;103481.47;;;-6.50;92.71
75701;BME280;64321;48.796;44.740;2024-02-15T17:08:19;103476.00;;;-6.59;95.40
75701;BME280;64321;48.796;44.740;2024-02-15T17:13:21;103487.16;;;-6.58;98.97
75701;BME280;64321;48.796;44.740;2024-02-15T17:18:26;103498.44;;;-6.55;96.31
75701;BME280;64321;48.796;44.740;2024-02-15T17:23:33;103472.19;;;-6.70;95.04
75701;BME280;64321;48.796;44.740;2024-02-15T17:28:37;103498.53;;;-6.76;95.73
75701;BME280;64321;48.796;44.740;2024-02-15T17:33:40;103501.59;;;-6.86;97.75
75701;BME280;64321;48.796;44.740;2024-02-15T17:38:44;103519.75;;;-6.81;97.42
75701;BME280;64321;48.796;44.740;2024-02-15T17:43:47;103523.03;;;-6.85;96.46
75701;BME280;64321;48.796;44.740;2024-02-15T17:48:50;103513.47;;;-6.89;95.15
75701;BME280;64321;48.796;44.740;2024-02-15T17:53:53;103516.97;;;-7.10;95.58
75701;BME280;64321;48.796;44.740;2024-02-15T17:59:01;103523.16;;;-7.05;96.95
75701;BME280;64321;48.796;44.740;2024-02-15T18:04:05;103522.22;;;-7.07;96.17
75701;BME280;64321;48.796;44.740;2024-02-15T18:09:08;103527.50;;;-7.04;96.00
75701;BME280;64321;48.796;44.740;2024-02-15T18:14:11;103517.63;;;-7.15;97.01
75701;BME280;64321;48.796;44.740;2024-02-15T18:19:13;103529.44;;;-7.20;96.05
75701;BME280;64321;48.796;44.740;2024-02-15T18:24:17;103525.78;;;-7.25;95.64
75701;BME280;64321;48.796;44.740;2024-02-15T18:29:19;103541.06;;;-7.28;94.59
75701;BME280;64321;48.796;44.740;2024-02-15T18:34:22;103534.00;;;-7.34;93.88
75701;BME280;64321;48.796;44.740;2024-02-15T18:39:25;103555.13;;;-7.41;93.10
75701;BME280;64321;48.796;44.740;2024-02-15T18:44:31;103557.69;;;-7.41;91.80
75701;BME280;64321;48.796;44.740;2024-02-15T18:49:35;103574.47;;;-7.49;91.34
75701;BME280;64321;48.796;44.740;2024-02-15T18:54:47;103571.56;;;-7.58;91.04
75701;BME280;64321;48.796;44.740;2024-02-15T18:59:49;103579.78;;;-7.45;90.99
75701;BME280;64321;48.796;44.740;2024-02-15T19:04:52;103558.03;;;-7.54;92.37
75701;BME280;64321;48.796;44.740;2024-02-15T19:09:54;103580.94;;;-7.80;91.46
75701;BME280;64321;48.796;44.740;2024-02-15T19:14:57;103583.19;;;-7.66;91.80
75701;BME280;64321;48.796;44.740;2024-02-15T19:20:02;103590.56;;;-7.74;91.40
75701;BME280;64321;48.796;44.740;2024-02-15T19:25:06;103583.81;;;-7.72;90.82
75701;BME280;64321;48.796;44.740;2024-02-15T19:30:09;103587.56;;;-7.64;91.52
75701;BME280;64321;48.796;44.740;2024-02-15T19:35:13;103582.69;;;-7.79;90.69
75701;BME280;64321;48.796;44.740;2024-02-15T19:40:16;103599.84;;;-7.78;91.06
75701;BME280;64321;48.796;44.740;2024-02-15T19:45:21;103596.25;;;-7.81;91.17
75701;BME280;64321;48.796;44.740;2024-02-15T19:50:23;103596.06;;;-7.86;91.29
75701;BME280;64321;48.796;44.740;2024-02-15T19:55:30;103604.56;;;-7.87;91.42
75701;BME280;64321;48.796;44.740;2024-02-15T20:00:33;103604.94;;;-7.98;90.06
75701;BME280;64321;48.796;44.740;2024-02-15T20:05:35;103580.44;;;-7.92;89.77
75701;BME280;64321;48.796;44.740;2024-02-15T20:10:38;103590.69;;;-7.92;90.03
75701;BME280;64321;48.796;44.740;2024-02-15T20:15:40;103596.84;;;-7.88;90.23
75701;BME280;64321;48.796;44.740;2024-02-15T20:20:43;103591.53;;;-8.12;88.07
75701;BME280;64321;48.796;44.740;2024-02-15T20:25:45;103605.59;;;-8.02;84.08
75701;BME280;64321;48.796;44.740;2024-02-15T20:30:48;103606.19;;;-8.10;81.21
75701;BME280;64321;48.796;44.740;2024-02-15T20:35:51;103610.72;;;-8.02;81.57
75701;BME280;64321;48.796;44.740;2024-02-15T20:40:54;103621.34;;;-8.14;82.89
75701;BME280;64321;48.796;44.740;2024-02-15T20:46:00;103614.19;;;-8.21;81.79
75701;BME280;64321;48.796;44.740;2024-02-15T20:51:03;103619.50;;;-8.37;81.03
75701;BME280;64321;48.796;44.740;2024-02-15T20:56:06;103622.47;;;-8.48;78.61
75701;BME280;64321;48.796;44.740;2024-02-15T21:01:08;103623.25;;;-8.29;78.08
75701;BME280;64321;48.796;44.740;2024-02-15T21:06:11;103627.00;;;-8.21;78.05
75701;BME280;64321;48.796;44.740;2024-02-15T21:11:14;103633.88;;;-8.20;80.28
75701;BME280;64321;48.796;44.740;2024-02-15T21:16:18;103623.34;;;-8.47;77.11
75701;BME280;64321;48.796;44.740;2024-02-15T21:21:20;103643.63;;;-8.52;77.51
75701;BME280;64321;48.796;44.740;2024-02-15T21:26:24;103638.09;;;-8.42;79.03
75701;BME280;64321;48.796;44.740;2024-02-15T21:31:28;103647.13;;;-8.50;80.47
75701;BME280;64321;48.796;44.740;2024-02-15T21:36:30;103635.34;;;-8.46;78.29
75701;BME280;64321;48.796;44.740;2024-02-15T21:41:33;103645.34;;;-8.70;78.42
75701;BME280;64321;48.796;44.740;2024-02-15T21:46:37;103660.94;;;-8.65;79.58
75701;BME280;64321;48.796;44.740;2024-02-15T21:51:39;103663.81;;;-8.58;80.32
75701;BME280;64321;48.796;44.740;2024-02-15T21:56:42;103648.31;;;-8.80;79.63
75701;BME280;64321;48.796;44.740;2024-02-15T22:01:44;103656.50;;;-8.87;77.18
75701;BME280;64321;48.796;44.740;2024-02-15T22:06:47;103647.88;;;-8.89;78.19
75701;BME280;64321;48.796;44.740;2024-02-15T22:11:50;103652.84;;;-8.92;78.84
75701;BME280;64321;48.796;44.740;2024-02-15T22:16:52;103649.22;;;-8.97;78.50
75701;BME280;64321;48.796;44.740;2024-02-15T22:21:55;103648.44;;;-9.13;77.93
75701;BME280;64321;48.796;44.740;2024-02-15T22:26:58;103663.53;;;-9.19;78.62
75701;BME280;64321;48.796;44.740;2024-02-15T22:32:01;103671.56;;;-9.11;80.16
75701;BME280;64321;48.796;44.740;2024-02-15T22:37:04;103663.53;;;-9.19;81.34
75701;BME280;64321;48.796;44.740;2024-02-15T22:42:06;103673.03;;;-9.34;81.75
75701;BME280;64321;48.796;44.740;2024-02-15T22:47:09;103686.66;;;-9.51;81.59
75701;BME280;64321;48.796;44.740;2024-02-15T22:52:12;103687.47;;;-9.52;81.08
75701;BME280;64321;48.796;44.740;2024-02-15T22:57:16;103685.75;;;-9.69;79.34
75701;BME280;64321;48.796;44.740;2024-02-15T23:02:18;103688.69;;;-9.78;79.28
75701;BME280;64321;48.796;44.740;2024-02-15T23:07:21;103710.34;;;-9.55;79.19
75701;BME280;64321;48.796;44.740;2024-02-15T23:12:25;103710.69;;;-9.48;80.98
75701;BME280;64321;48.796;44.740;2024-02-15T23:17:28;103696.94;;;-9.67;79.73
75701;BME280;64321;48.796;44.740;2024-02-15T23:22:32;103695.22;;;-9.67;79.94
75701;BME280;64321;48.796;44.740;2024-02-15T23:27:35;103713.97;;;-9.68;80.66
75701;BME280;64321;48.796;44.740;2024-02-15T23:32:38;103702.53;;;-9.74;80.75
75701;BME280;64321;48.796;44.740;2024-02-15T23:37:40;103708.91;;;-9.83;79.27
75701;BME280;64321;48.796;44.740;2024-02-15T23:43:01;103708.91;;;-9.83;77.53
75701;BME280;64321;48.796;44.740;2024-02-15T23:48:05;103718.66;;;-9.75;79.13
75701;BME280;64321;48.796;44.740;2024-02-15T23:53:08;103718.19;;;-9.85;79.59
75701;BME280;64321;48.796;44.740;2024-02-15T23:58:11;103709.56;;;-9.87;81.09
